createdAt,value
2017-09-23T00:00:47.819Z,39.60
2017-09-23T00:03:15.923Z,41.00
2017-09-23T00:05:44.050Z,41.90
2017-09-23T00:08:12.124Z,42.10
2017-09-23T00:10:40.231Z,40.63
2017-09-23T00:13:08.339Z,39.80
2017-09-23T00:15:36.427Z,39.37
2017-09-23T00:18:04.540Z,39.77
2017-09-23T00:20:33.707Z,38.70
2017-09-23T00:23:01.795Z,36.83
2017-09-23T00:25:29.928Z,37.53
2017-09-23T00:27:58.015Z,36.57
2017-09-23T00:30:26.121Z,37.67
2017-09-23T00:32:54.204Z,38.30
2017-09-23T00:35:22.287Z,36.27
2017-09-23T00:37:52.456Z,35.00
2017-09-23T00:40:20.544Z,36.20
2017-09-23T00:42:49.423Z,36.17
2017-09-23T00:45:17.547Z,36.87
2017-09-23T00:47:45.661Z,35.23
2017-09-23T00:50:13.767Z,37.70
2017-09-23T00:52:41.848Z,39.47
2017-09-23T00:55:09.963Z,38.60
2017-09-23T00:57:38.064Z,37.97
2017-09-23T01:00:06.167Z,40.50
2017-09-23T01:02:34.280Z,42.43
2017-09-23T01:05:02.391Z,41.80
2017-09-23T01:07:31.276Z,39.37
2017-09-23T01:10:00.135Z,39.50
2017-09-23T01:12:28.227Z,41.53
2017-09-23T01:14:56.388Z,40.80
2017-09-23T01:17:25.609Z,39.33
2017-09-23T01:19:53.690Z,40.47
2017-09-23T01:22:22.543Z,42.73
2017-09-23T01:24:51.977Z,41.40
2017-09-23T01:27:20.259Z,41.80
2017-09-23T01:29:48.374Z,41.97
2017-09-23T01:32:16.472Z,43.00
2017-09-23T01:34:44.572Z,42.33
2017-09-23T01:37:13.459Z,42.77
2017-09-23T01:39:41.543Z,41.20
2017-09-23T01:42:10.423Z,38.87
2017-09-23T01:44:39.394Z,41.20
2017-09-23T01:47:07.489Z,41.90
2017-09-23T01:49:36.352Z,43.37
2017-09-23T01:52:04.455Z,50.50
2017-09-23T01:54:33.346Z,57.80
2017-09-23T01:57:02.219Z,58.50
2017-09-23T01:59:30.313Z,61.50
2017-09-23T02:01:58.440Z,67.40
2017-09-23T02:04:26.547Z,67.07
2017-09-23T02:06:54.794Z,66.53
2017-09-23T02:09:22.892Z,68.60
2017-09-23T02:11:51.014Z,68.80
2017-09-23T02:14:19.113Z,70.50
2017-09-23T02:16:47.232Z,70.40
2017-09-23T02:19:16.100Z,71.70
2017-09-23T02:21:44.291Z,73.87
2017-09-23T02:24:13.150Z,72.53
2017-09-23T02:26:41.251Z,72.27
2017-09-23T02:29:09.416Z,72.77
2017-09-23T02:31:37.524Z,72.57
2017-09-23T02:34:05.645Z,71.03
2017-09-23T02:36:33.757Z,72.73
2017-09-23T02:39:01.847Z,73.70
2017-09-23T02:41:29.970Z,73.50
2017-09-23T02:43:58.135Z,71.77
2017-09-23T02:46:27.295Z,75.27
2017-09-23T02:48:55.412Z,72.00
2017-09-23T02:51:24.234Z,79.47
2017-09-23T02:53:52.346Z,76.93
2017-09-23T02:56:20.457Z,74.80
2017-09-23T02:58:48.606Z,76.13
2017-09-23T03:01:16.775Z,74.70
2017-09-23T03:03:44.884Z,75.43
2017-09-23T03:06:13.755Z,76.40
2017-09-23T03:08:41.876Z,76.20
2017-09-23T03:11:10.003Z,75.70
2017-09-23T03:13:38.118Z,75.97
2017-09-23T03:16:06.231Z,71.53
2017-09-23T03:18:35.103Z,74.80
2017-09-23T03:21:03.218Z,75.00
2017-09-23T03:23:31.555Z,69.17
2017-09-23T03:26:00.184Z,72.13
2017-09-23T03:28:28.307Z,69.40
2017-09-23T03:30:56.394Z,73.20
2017-09-23T03:33:24.503Z,70.07
2017-09-23T03:35:52.659Z,71.67
2017-09-23T03:38:20.744Z,71.10
2017-09-23T03:40:48.848Z,71.13
2017-09-23T03:43:16.942Z,71.83
2017-09-23T03:45:45.051Z,67.53
2017-09-23T03:48:13.187Z,73.17
2017-09-23T03:50:41.304Z,69.53
2017-09-23T03:53:09.417Z,69.83
2017-09-23T03:55:37.507Z,66.40
2017-09-23T03:58:05.641Z,64.43
2017-09-23T04:00:33.751Z,63.47
2017-09-23T04:03:01.874Z,61.83
2017-09-23T04:05:29.984Z,65.40
2017-09-23T04:07:58.096Z,62.63
2017-09-23T04:10:26.229Z,64.17
2017-09-23T04:12:54.369Z,62.47
2017-09-23T04:15:24.288Z,73.97
2017-09-23T04:17:53.331Z,68.80
2017-09-23T04:20:21.492Z,71.10
2017-09-23T04:22:49.590Z,70.17
2017-09-23T04:25:17.692Z,68.90
2017-09-23T04:27:46.868Z,70.60
2017-09-23T04:30:14.965Z,70.00
2017-09-23T04:32:43.084Z,65.03
2017-09-23T04:35:11.176Z,72.50
2017-09-23T04:37:39.296Z,69.17
2017-09-23T04:40:08.156Z,70.60
2017-09-23T04:42:36.269Z,64.10
2017-09-23T04:45:04.388Z,70.07
2017-09-23T04:47:32.509Z,69.83
2017-09-23T04:50:00.627Z,67.63
2017-09-23T04:52:28.707Z,68.90
2017-09-23T04:54:56.818Z,67.73
2017-09-23T04:57:25.719Z,69.93
2017-09-23T04:59:53.820Z,66.57
2017-09-23T05:02:21.936Z,69.33
2017-09-23T05:04:50.053Z,70.40
2017-09-23T05:07:18.173Z,69.30
2017-09-23T05:09:46.388Z,71.33
2017-09-23T05:12:14.492Z,67.20
2017-09-23T05:14:42.620Z,68.43
2017-09-23T05:17:11.481Z,70.77
2017-09-23T05:19:39.608Z,70.60
2017-09-23T05:22:07.714Z,70.80
2017-09-23T05:24:35.823Z,69.27
2017-09-23T05:27:04.715Z,66.40
2017-09-23T05:29:32.825Z,66.90
2017-09-23T05:32:01.003Z,67.00
2017-09-23T05:34:29.092Z,69.40
2017-09-23T05:36:57.209Z,68.43
2017-09-23T05:39:26.070Z,66.10
2017-09-23T05:41:54.163Z,68.00
2017-09-23T05:44:22.280Z,68.93
2017-09-23T05:46:50.404Z,68.93
2017-09-23T05:49:18.532Z,68.53
2017-09-23T05:51:46.658Z,63.93
2017-09-23T05:54:15.855Z,68.97
2017-09-23T05:56:44.966Z,63.83
2017-09-23T05:59:13.847Z,62.50
2017-09-23T06:01:42.719Z,66.37
2017-09-23T06:04:10.846Z,66.23
2017-09-23T06:06:38.974Z,62.43
2017-09-23T06:09:09.020Z,68.47
2017-09-23T06:11:37.298Z,63.57
2017-09-23T06:14:05.423Z,67.00
2017-09-23T06:16:33.563Z,64.90
2017-09-23T06:19:01.664Z,65.07
2017-09-23T06:21:29.801Z,65.60
2017-09-23T06:23:58.111Z,63.63
2017-09-23T06:26:26.767Z,67.57
2017-09-23T06:28:54.872Z,66.30
2017-09-23T06:31:23.331Z,64.00
2017-09-23T06:33:52.464Z,64.13
2017-09-23T06:36:21.588Z,64.60
2017-09-23T06:38:49.715Z,67.27
2017-09-23T06:41:18.475Z,68.33
2017-09-23T06:43:46.582Z,64.47
2017-09-23T06:46:15.603Z,60.90
2017-09-23T06:48:43.717Z,68.77
2017-09-23T06:51:11.807Z,65.30
2017-09-23T06:53:39.911Z,64.40
2017-09-23T06:56:08.185Z,65.37
2017-09-23T06:58:36.289Z,64.60
2017-09-23T07:01:04.404Z,67.60
2017-09-23T07:03:33.308Z,65.00
2017-09-23T07:06:02.534Z,65.20
2017-09-23T07:08:30.682Z,62.97
2017-09-23T07:10:58.784Z,66.20
2017-09-23T07:13:26.976Z,65.37
2017-09-23T07:15:55.290Z,64.50
2017-09-23T07:18:23.515Z,67.50
2017-09-23T07:20:52.769Z,67.47
2017-09-23T07:23:21.168Z,68.03
2017-09-23T07:25:49.614Z,64.27
2017-09-23T07:28:19.950Z,69.03
2017-09-23T07:30:48.220Z,64.60
2017-09-23T07:33:17.333Z,65.90
2017-09-23T07:35:46.651Z,64.70
2017-09-23T07:38:14.748Z,68.67
2017-09-23T07:40:42.855Z,68.00
2017-09-23T07:43:12.297Z,67.10
2017-09-23T07:45:40.637Z,68.20
2017-09-23T07:48:08.835Z,67.23
2017-09-23T07:50:36.953Z,67.00
2017-09-23T07:53:05.824Z,68.83
2017-09-23T07:55:34.133Z,68.67
2017-09-23T07:58:02.259Z,62.57
2017-09-23T08:00:31.462Z,68.37
2017-09-23T08:03:00.456Z,69.07
2017-09-23T08:05:28.777Z,68.77
2017-09-23T08:07:57.083Z,66.30
2017-09-23T08:10:25.388Z,68.53
2017-09-23T08:12:54.467Z,65.50
2017-09-23T08:15:23.844Z,66.37
2017-09-23T08:17:51.941Z,66.57
2017-09-23T08:20:20.073Z,64.40
2017-09-23T08:22:50.644Z,67.80
2017-09-23T08:25:19.699Z,66.13
2017-09-23T08:27:47.830Z,62.30
2017-09-23T08:30:17.395Z,62.00
2017-09-23T08:32:45.528Z,64.83
2017-09-23T08:35:13.650Z,62.57
2017-09-23T08:37:41.981Z,61.30
2017-09-23T08:40:11.235Z,58.23
2017-09-23T08:42:39.541Z,62.37
2017-09-23T08:45:07.713Z,61.27
2017-09-23T08:47:35.820Z,60.90
2017-09-23T08:50:03.929Z,58.07
2017-09-23T08:52:33.111Z,57.47
2017-09-23T08:55:02.232Z,65.60
2017-09-23T08:57:30.345Z,60.60
2017-09-23T08:59:59.359Z,58.80
2017-09-23T09:02:27.497Z,60.47
2017-09-23T09:04:55.615Z,58.40
2017-09-23T09:07:23.752Z,56.30
2017-09-23T09:09:52.643Z,59.20
2017-09-23T09:12:21.515Z,61.03
2017-09-23T09:14:49.704Z,57.97
2017-09-23T09:17:18.616Z,56.43
2017-09-23T09:19:46.714Z,58.33
2017-09-23T09:22:14.835Z,56.30
2017-09-23T09:24:43.701Z,57.50
2017-09-23T09:27:11.809Z,51.67
2017-09-23T09:29:41.045Z,50.10
2017-09-23T09:32:09.160Z,50.40
2017-09-23T09:34:37.248Z,51.77
2017-09-23T09:37:05.347Z,52.77
2017-09-23T09:39:33.460Z,53.37
2017-09-23T09:42:01.552Z,48.57
2017-09-23T09:44:30.872Z,52.73
2017-09-23T09:46:59.844Z,46.03
2017-09-23T09:49:27.948Z,42.93
2017-09-23T09:51:56.808Z,40.07
2017-09-23T09:54:25.993Z,42.50
2017-09-23T09:56:54.213Z,43.93
2017-09-23T09:59:22.388Z,45.00
2017-09-23T10:01:50.514Z,50.33
2017-09-23T10:04:18.612Z,49.10
2017-09-23T10:06:46.747Z,48.37
2017-09-23T10:09:14.844Z,45.77
2017-09-23T10:11:42.989Z,47.17
2017-09-23T10:14:11.088Z,49.10
2017-09-23T10:16:39.184Z,41.70
2017-09-23T10:19:07.303Z,43.97
2017-09-23T10:21:35.448Z,43.10
2017-09-23T10:24:03.593Z,42.00
2017-09-23T10:26:32.500Z,42.40
2017-09-23T10:29:00.669Z,45.67
2017-09-23T10:31:29.762Z,45.53
2017-09-23T10:33:59.572Z,44.30
2017-09-23T10:36:27.773Z,46.60
2017-09-23T10:38:55.935Z,45.80
2017-09-23T10:41:24.942Z,47.53
2017-09-23T10:43:53.095Z,40.57
2017-09-23T10:46:21.173Z,41.43
2017-09-23T10:48:49.349Z,43.43
2017-09-23T10:51:17.466Z,41.00
2017-09-23T10:53:47.308Z,41.53
2017-09-23T10:56:16.371Z,39.07
2017-09-23T10:58:44.533Z,39.50
2017-09-23T11:01:12.667Z,44.53
2017-09-23T11:03:40.820Z,45.40
2017-09-23T11:06:09.103Z,44.93
2017-09-23T11:08:38.919Z,43.03
2017-09-23T11:11:07.087Z,42.23
2017-09-23T11:13:35.231Z,43.87
2017-09-23T11:16:03.397Z,44.10
2017-09-23T11:18:31.505Z,43.03
2017-09-23T11:20:59.672Z,45.57
2017-09-23T11:23:27.785Z,43.53
2017-09-23T11:25:55.875Z,42.10
2017-09-23T11:28:24.003Z,37.97
2017-09-23T11:30:52.087Z,39.13
2017-09-23T11:33:20.196Z,39.33
2017-09-23T11:35:48.302Z,38.13
2017-09-23T11:38:16.386Z,35.90
2017-09-23T11:40:44.496Z,35.13
2017-09-23T11:43:12.588Z,37.40
2017-09-23T11:45:40.695Z,36.00
2017-09-23T11:48:08.831Z,32.27
2017-09-23T11:50:36.964Z,32.47
2017-09-23T11:53:05.850Z,34.30
2017-09-23T11:55:33.970Z,31.73
2017-09-23T11:58:02.156Z,29.60
2017-09-23T12:00:30.533Z,29.43
2017-09-23T12:02:58.621Z,30.57
2017-09-23T12:05:26.744Z,30.77
2017-09-23T12:07:54.928Z,30.00
2017-09-23T12:10:23.051Z,29.70
2017-09-23T12:12:51.155Z,25.90
2017-09-23T12:15:20.059Z,26.70
2017-09-23T12:17:49.194Z,29.50
2017-09-23T12:20:17.319Z,25.60
2017-09-23T12:22:45.427Z,27.50
2017-09-23T12:25:13.531Z,24.97
2017-09-23T12:27:41.650Z,26.90
2017-09-23T12:30:09.749Z,28.63
2017-09-23T12:32:37.967Z,27.53
2017-09-23T12:35:06.089Z,33.30
2017-09-23T12:37:34.228Z,32.67
2017-09-23T12:40:03.137Z,31.07
2017-09-23T12:42:31.231Z,30.57
2017-09-23T12:44:59.384Z,33.07
2017-09-23T12:47:27.534Z,30.33
2017-09-23T12:49:56.410Z,29.33
2017-09-23T12:52:25.297Z,30.30
2017-09-23T12:54:53.730Z,29.93
2017-09-23T12:57:21.877Z,29.47
2017-09-23T12:59:49.975Z,29.33
2017-09-23T13:02:18.097Z,31.17
2017-09-23T13:04:46.212Z,34.10
2017-09-23T13:07:14.495Z,32.87
2017-09-23T13:09:42.618Z,30.50
2017-09-23T13:12:10.710Z,33.90
2017-09-23T13:14:39.587Z,33.27
2017-09-23T13:17:07.692Z,33.97
2017-09-23T13:19:35.792Z,30.87
2017-09-23T13:22:03.913Z,28.10
2017-09-23T13:24:32.776Z,31.30
2017-09-23T13:27:00.892Z,30.53
2017-09-23T13:29:29.783Z,33.67
2017-09-23T13:31:57.906Z,34.30
2017-09-23T13:34:26.016Z,29.37
2017-09-23T13:36:54.113Z,30.40
2017-09-23T13:39:22.256Z,32.83
2017-09-23T13:41:51.161Z,29.90
2017-09-23T13:44:19.273Z,29.73
2017-09-23T13:46:47.398Z,28.30
2017-09-23T13:49:16.321Z,28.80
2017-09-23T13:51:44.745Z,25.73
2017-09-23T13:54:12.852Z,29.47
2017-09-23T13:56:41.202Z,28.00
2017-09-23T13:59:09.316Z,30.20
2017-09-23T14:01:38.435Z,30.10
2017-09-23T14:04:06.534Z,29.47
2017-09-23T14:06:34.648Z,31.90
2017-09-23T14:09:02.902Z,29.53
2017-09-23T14:11:31.051Z,30.20
2017-09-23T14:13:59.746Z,29.23
2017-09-23T14:16:27.856Z,29.47
2017-09-23T14:18:55.954Z,29.10
2017-09-23T14:21:24.038Z,29.77
2017-09-23T14:23:53.467Z,29.83
2017-09-23T14:26:22.052Z,29.07
2017-09-23T14:28:50.257Z,28.77
2017-09-23T14:31:18.363Z,30.07
2017-09-23T14:33:46.474Z,31.20
2017-09-23T14:36:14.580Z,30.27
2017-09-23T14:38:42.700Z,29.30
2017-09-23T14:41:10.983Z,29.80
2017-09-23T14:43:39.083Z,29.33
2017-09-23T14:46:07.187Z,29.53
2017-09-23T14:48:35.310Z,28.47
2017-09-23T14:51:03.390Z,30.80
2017-09-23T14:53:31.484Z,28.80
2017-09-23T14:56:00.363Z,27.73
2017-09-23T14:58:29.232Z,28.13
2017-09-23T15:00:57.368Z,27.83
2017-09-23T15:03:25.479Z,26.90
2017-09-23T15:05:53.573Z,26.00
2017-09-23T15:08:21.682Z,27.03
2017-09-23T15:10:50.867Z,25.83
2017-09-23T15:13:18.987Z,26.10
2017-09-23T15:15:47.078Z,29.20
2017-09-23T15:18:15.197Z,26.50
2017-09-23T15:20:43.322Z,26.33
2017-09-23T15:23:11.442Z,27.20
2017-09-23T15:25:40.668Z,26.77
2017-09-23T15:28:08.765Z,25.23
2017-09-23T15:30:36.860Z,26.57
2017-09-23T15:33:04.981Z,30.50
2017-09-23T15:35:33.059Z,26.83
2017-09-23T15:38:01.190Z,26.47
2017-09-23T15:40:30.375Z,27.10
2017-09-23T15:42:59.280Z,27.00
2017-09-23T15:45:28.533Z,25.00
2017-09-23T15:47:56.940Z,26.17
2017-09-23T15:50:25.835Z,28.40
2017-09-23T15:52:54.755Z,26.77
2017-09-23T15:55:22.877Z,27.70
2017-09-23T15:57:51.740Z,30.00
2017-09-23T16:00:20.656Z,28.20
2017-09-23T16:02:48.782Z,28.50
2017-09-23T16:05:16.928Z,27.63
2017-09-23T16:07:45.034Z,28.20
2017-09-23T16:10:13.131Z,26.63
2017-09-23T16:12:41.274Z,25.80
2017-09-23T16:15:09.376Z,26.87
2017-09-23T16:17:37.483Z,26.67
2017-09-23T16:20:06.392Z,26.70
2017-09-23T16:22:35.269Z,28.10
2017-09-23T16:25:04.325Z,27.70
2017-09-23T16:27:32.412Z,27.87
2017-09-23T16:30:00.528Z,28.30
2017-09-23T16:32:28.631Z,29.40
2017-09-23T16:34:56.739Z,29.47
2017-09-23T16:37:24.936Z,30.00
2017-09-23T16:39:53.825Z,30.20
2017-09-23T16:42:21.919Z,28.73
2017-09-23T16:44:50.038Z,29.30
2017-09-23T16:47:18.151Z,27.30
2017-09-23T16:49:46.885Z,28.20
2017-09-23T16:52:15.011Z,28.80
2017-09-23T16:54:43.140Z,28.90
2017-09-23T16:57:11.246Z,29.67
2017-09-23T16:59:40.106Z,31.70
2017-09-23T17:02:08.717Z,31.37
2017-09-23T17:04:36.815Z,31.70
2017-09-23T17:07:04.960Z,33.10
2017-09-23T17:09:33.058Z,32.33
2017-09-23T17:12:01.154Z,33.97
2017-09-23T17:14:29.291Z,32.20
2017-09-23T17:16:58.176Z,30.57
2017-09-23T17:19:26.347Z,33.93
2017-09-23T17:21:55.219Z,32.77
2017-09-23T17:24:23.434Z,34.20
2017-09-23T17:26:51.627Z,33.93
2017-09-23T17:29:19.779Z,37.17
2017-09-23T17:31:47.926Z,38.10
2017-09-23T17:34:16.051Z,37.10
2017-09-23T17:36:44.172Z,37.57
2017-09-23T17:39:12.255Z,36.27
2017-09-23T17:41:40.390Z,36.13
2017-09-23T17:44:09.495Z,36.87
2017-09-23T17:46:37.639Z,38.83
2017-09-23T17:49:05.731Z,38.73
2017-09-23T17:51:33.841Z,38.90
2017-09-23T17:54:01.968Z,40.20
2017-09-23T17:56:30.077Z,39.70
2017-09-23T17:58:58.264Z,40.47
2017-09-23T18:01:26.335Z,39.97
2017-09-23T18:03:55.337Z,39.90
2017-09-23T18:06:23.435Z,37.10
2017-09-23T18:08:51.568Z,37.70
2017-09-23T18:11:21.435Z,37.93
2017-09-23T18:13:50.739Z,36.57
2017-09-23T18:16:18.858Z,39.67
2017-09-23T18:18:49.354Z,37.27
2017-09-23T18:21:17.481Z,37.43
2017-09-23T18:23:45.668Z,42.10
2017-09-23T18:26:13.807Z,41.73
2017-09-23T18:28:42.891Z,40.60
2017-09-23T18:31:12.173Z,41.70
2017-09-23T18:33:41.226Z,41.43
2017-09-23T18:36:09.515Z,42.70
2017-09-23T18:38:37.635Z,44.63
2017-09-23T18:41:06.752Z,41.60
2017-09-23T18:43:36.812Z,41.43
2017-09-23T18:46:05.088Z,41.47
2017-09-23T18:48:37.750Z,44.10
2017-09-23T18:51:05.939Z,40.83
2017-09-23T18:53:34.196Z,41.20
2017-09-23T18:56:03.407Z,40.17
2017-09-23T18:58:31.695Z,41.90
2017-09-23T19:00:59.794Z,42.03
2017-09-23T19:03:28.021Z,44.60
2017-09-23T19:05:59.375Z,44.77
2017-09-23T19:08:27.492Z,42.50
2017-09-23T19:10:55.655Z,40.93
2017-09-23T19:13:24.782Z,44.00
2017-09-23T19:15:53.713Z,42.83
2017-09-23T19:18:21.810Z,42.80
2017-09-23T19:20:49.942Z,41.00
2017-09-23T19:23:19.670Z,40.47
2017-09-23T19:25:48.167Z,40.53
2017-09-23T19:28:16.317Z,41.00
2017-09-23T19:30:44.460Z,41.53
2017-09-23T19:33:12.669Z,43.10
2017-09-23T19:35:40.929Z,42.73
2017-09-23T19:38:09.158Z,41.23
2017-09-23T19:40:37.414Z,44.27
2017-09-23T19:43:07.000Z,43.47
2017-09-23T19:45:35.573Z,44.03
2017-09-23T19:48:04.011Z,44.10
2017-09-23T19:50:32.742Z,48.07
2017-09-23T19:53:00.843Z,45.33
2017-09-23T19:55:28.977Z,44.73
2017-09-23T19:57:57.091Z,43.50
2017-09-23T20:00:25.333Z,46.27
2017-09-23T20:02:53.518Z,46.00
2017-09-23T20:05:21.622Z,46.93
2017-09-23T20:07:49.893Z,46.00
2017-09-23T20:10:18.145Z,46.27
2017-09-23T20:12:46.291Z,48.30
2017-09-23T20:15:16.131Z,47.40
2017-09-23T20:17:44.226Z,48.13
2017-09-23T20:20:12.357Z,44.03
2017-09-23T20:22:40.491Z,47.60
2017-09-23T20:25:08.600Z,45.83
2017-09-23T20:27:36.808Z,51.30
2017-09-23T20:30:07.117Z,50.10
2017-09-23T20:32:35.208Z,46.90
2017-09-23T20:35:03.363Z,45.60
2017-09-23T20:37:31.611Z,43.63
2017-09-23T20:39:59.828Z,43.90
2017-09-23T20:42:27.961Z,44.00
2017-09-23T20:45:01.025Z,44.03
2017-09-23T20:47:29.426Z,43.00
2017-09-23T20:49:58.464Z,43.93
2017-09-23T20:52:26.607Z,43.90
2017-09-23T20:54:56.491Z,42.63
2017-09-23T20:57:24.637Z,42.77
2017-09-23T20:59:52.756Z,42.40
2017-09-23T21:02:21.369Z,41.17
2017-09-23T21:04:49.538Z,41.27
2017-09-23T21:07:17.683Z,40.63
2017-09-23T21:09:45.887Z,40.97
2017-09-23T21:12:14.003Z,40.30
2017-09-23T21:14:42.205Z,41.50
2017-09-23T21:17:11.096Z,42.70
2017-09-23T21:19:40.024Z,40.90
2017-09-23T21:22:08.128Z,44.20
2017-09-23T21:24:36.262Z,42.37
2017-09-23T21:27:04.439Z,44.13
2017-09-23T21:29:41.179Z,45.80
2017-09-23T21:32:09.379Z,43.77
2017-09-23T21:40:41.783Z,43.60
2017-09-23T21:43:38.096Z,51.57
2017-09-23T21:46:07.260Z,47.90
2017-09-23T21:48:35.522Z,47.60
2017-09-23T21:51:03.653Z,46.43
2017-09-23T21:53:32.900Z,45.17
2017-09-23T21:56:01.032Z,56.17
2017-09-23T21:58:30.997Z,53.03
2017-09-23T22:01:01.416Z,47.97
2017-09-23T22:03:33.176Z,53.77
2017-09-23T22:06:02.240Z,54.00
2017-09-23T22:08:30.443Z,54.23
2017-09-23T22:10:58.607Z,51.30
2017-09-23T22:13:28.518Z,51.03
2017-09-23T22:15:58.170Z,53.30
2017-09-23T22:18:26.367Z,49.10
2017-09-23T22:20:55.448Z,50.33
2017-09-23T22:23:23.860Z,49.67
2017-09-23T22:25:51.959Z,52.00
2017-09-23T22:28:20.092Z,50.10
2017-09-23T22:30:48.972Z,49.30
2017-09-23T22:33:17.099Z,49.03
2017-09-23T22:35:45.200Z,45.73
2017-09-23T22:38:13.294Z,48.03
2017-09-23T22:40:41.444Z,46.13
2017-09-23T22:43:09.524Z,45.00
2017-09-23T22:45:37.641Z,48.53
2017-09-23T22:48:06.719Z,45.80
2017-09-23T22:50:35.608Z,46.87
2017-09-23T22:53:04.483Z,48.67
2017-09-23T22:55:32.581Z,45.80
2017-09-23T22:58:00.696Z,46.67
2017-09-23T23:00:28.806Z,44.47
2017-09-23T23:02:57.736Z,44.43
2017-09-23T23:05:25.844Z,46.23
2017-09-23T23:07:53.959Z,45.73
2017-09-23T23:10:22.994Z,46.13
2017-09-23T23:12:51.155Z,45.30
2017-09-23T23:15:19.289Z,46.03
2017-09-23T23:17:48.156Z,45.90
2017-09-23T23:20:16.263Z,46.90
2017-09-23T23:22:44.362Z,46.70
2017-09-23T23:25:12.559Z,47.27
2017-09-23T23:27:40.672Z,47.13
2017-09-23T23:30:08.756Z,49.10
2017-09-23T23:32:36.874Z,47.90
2017-09-23T23:35:05.242Z,47.40
2017-09-23T23:37:33.327Z,47.07
2017-09-23T23:40:01.432Z,44.80
2017-09-23T23:42:29.581Z,44.23
2017-09-23T23:44:57.667Z,44.10
2017-09-23T23:47:25.789Z,43.77
2017-09-23T23:49:53.900Z,45.43
2017-09-23T23:52:21.987Z,47.97
2017-09-23T23:54:50.106Z,43.17
2017-09-23T23:57:18.193Z,44.53
2017-09-23T23:59:46.279Z,47.70
